sensor_id;sensor_type;location;lat;lon;timestamp;pressure;altitude;pressure_sealevel;temperature;humidity
69566;BME280;56777;55.930;37.524;2024-02-14T00:01:48;100848.06;;;5.04;100.00
69566;BME280;56777;55.930;37.524;2024-02-14T00:04:14;100856.34;;;5.16;100.00
69566;BME280;56777;55.930;37.524;2024-02-14T00:06:39;100842.34;;;5.12;100.00
69566;BME280;56777;55.930;37.524;2024-02-14T00:09:05;100848.81;;;5.22;100.00
69566;BME280;56777;55.930;37.524;2024-02-14T00:11:32;100856.22;;;5.34;100.00
69566;BME280;56777;55.930;37.524;2024-02-14T00:13:58;100850.13;;;5.33;100.00
69566;BME280;56777;55.930;37.524;2024-02-14T00:16:25;100836.31;;;5.34;100.00
69566;BME280;56777;55.930;37.524;2024-02-14T00:18:50;100838.09;;;5.35;100.00
69566;BME280;56777;55.930;37.524;2024-02-14T00:21:16;100836.00;;;5.27;100.00
69566;BME280;56777;55.930;37.524;2024-02-14T00:23:42;100855.38;;;5.35;100.00
69566;BME280;56777;55.930;37.524;2024-02-14T00:26:08;100835.88;;;5.24;100.00
69566;BME280;56777;55.930;37.524;2024-02-14T00:28:34;100820.78;;;5.15;100.00
69566;BME280;56777;55.930;37.524;2024-02-14T00:31:00;100859.31;;;5.25;100.00
69566;BME280;56777;55.930;37.524;2024-02-14T00:33:25;100846.09;;;5.19;100.00
69566;BME280;56777;55.930;37.524;2024-02-14T00:35:51;100841.00;;;5.22;100.00
69566;BME280;56777;55.930;37.524;2024-02-14T00:38:17;100813.31;;;5.02;100.00
69566;BME280;56777;55.930;37.524;2024-02-14T00:40:43;100857.44;;;5.21;100.00
69566;BME280;56777;55.930;37.524;2024-02-14T00:43:08;100835.19;;;5.07;100.00
69566;BME280;56777;55.930;37.524;2024-02-14T00:45:34;100835.09;;;5.05;100.00
69566;BME280;56777;55.930;37.524;2024-02-14T00:48:01;100812.94;;;4.92;100.00
69566;BME280;56777;55.930;37.524;2024-02-14T00:50:27;100840.19;;;5.02;100.00
69566;BME280;56777;55.930;37.524;2024-02-14T00:52:52;100782.72;;;4.73;100.00
69566;BME280;56777;55.930;37.524;2024-02-14T00:55:18;100779.13;;;4.70;100.00
69566;BME280;56777;55.930;37.524;2024-02-14T00:57:43;100839.41;;;5.05;100.00
69566;BME280;56777;55.930;37.524;2024-02-14T01:00:09;100818.91;;;4.90;100.00
69566;BME280;56777;55.930;37.524;2024-02-14T01:02:34;100842.84;;;5.04;100.00
69566;BME280;56777;55.930;37.524;2024-02-14T01:05:01;100832.19;;;4.97;100.00
69566;BME280;56777;55.930;37.524;2024-02-14T01:07:27;100844.63;;;5.05;100.00
69566;BME280;56777;55.930;37.524;2024-02-14T01:09:52;100839.28;;;5.02;100.00
69566;BME280;56777;55.930;37.524;2024-02-14T01:12:18;100834.34;;;5.08;100.00
69566;BME280;56777;55.930;37.524;2024-02-14T01:14:45;100856.91;;;5.09;100.00
69566;BME280;56777;55.930;37.524;2024-02-14T01:17:10;100848.97;;;5.06;100.00
69566;BME280;56777;55.930;37.524;2024-02-14T01:19:36;100848.84;;;5.03;100.00
69566;BME280;56777;55.930;37.524;2024-02-14T01:22:01;100839.97;;;4.97;100.00
69566;BME280;56777;55.930;37.524;2024-02-14T01:24:28;100853.50;;;5.10;100.00
69566;BME280;56777;55.930;37.524;2024-02-14T01:26:55;100835.41;;;4.92;100.00
69566;BME280;56777;55.930;37.524;2024-02-14T01:29:21;100772.31;;;4.53;100.00
69566;BME280;56777;55.930;37.524;2024-02-14T01:31:48;100857.13;;;4.94;100.00
69566;BME280;56777;55.930;37.524;2024-02-14T01:34:15;100846.56;;;4.89;100.00
69566;BME280;56777;55.930;37.524;2024-02-14T01:36:41;100849.19;;;4.89;100.00
69566;BME280;56777;55.930;37.524;2024-02-14T01:39:06;100850.22;;;4.94;100.00
69566;BME280;56777;55.930;37.524;2024-02-14T01:41:33;100838.50;;;4.83;100.00
69566;BME280;56777;55.930;37.524;2024-02-14T01:43:58;100786.78;;;4.47;100.00
69566;BME280;56777;55.930;37.524;2024-02-14T01:46:25;100845.75;;;4.90;100.00
69566;BME280;56777;55.930;37.524;2024-02-14T01:48:50;100832.38;;;4.81;100.00
69566;BME280;56777;55.930;37.524;2024-02-14T01:51:18;100862.41;;;4.95;100.00
69566;BME280;56777;55.930;37.524;2024-02-14T01:53:45;100838.50;;;4.83;100.00
69566;BME280;56777;55.930;37.524;2024-02-14T01:56:11;100877.28;;;5.00;100.00
69566;BME280;56777;55.930;37.524;2024-02-14T01:58:37;100863.78;;;4.87;100.00
69566;BME280;56777;55.930;37.524;2024-02-14T02:01:04;100880.72;;;4.99;100.00
69566;BME280;56777;55.930;37.524;2024-02-14T02:03:30;100875.41;;;4.95;100.00
69566;BME280;56777;55.930;37.524;2024-02-14T02:05:58;100875.94;;;4.88;100.00
69566;BME280;56777;55.930;37.524;2024-02-14T02:08:24;100889.88;;;4.90;100.00
69566;BME280;56777;55.930;37.524;2024-02-14T02:10:50;100897.81;;;4.93;100.00
69566;BME280;56777;55.930;37.524;2024-02-14T02:13:15;100887.91;;;4.85;100.00
69566;BME280;56777;55.930;37.524;2024-02-14T02:15:41;100886.06;;;4.82;100.00
69566;BME280;56777;55.930;37.524;2024-02-14T02:18:10;100892.88;;;4.80;100.00
69566;BME280;56777;55.930;37.524;2024-02-14T02:20:36;100859.22;;;4.62;100.00
69566;BME280;56777;55.930;37.524;2024-02-14T02:23:02;100896.31;;;4.79;100.00
69566;BME280;56777;55.930;37.524;2024-02-14T02:25:28;100879.38;;;4.68;100.00
69566;BME280;56777;55.930;37.524;2024-02-14T02:27:53;100905.47;;;4.71;100.00
69566;BME280;56777;55.930;37.524;2024-02-14T02:30:22;100816.97;;;4.26;100.00
69566;BME280;56777;55.930;37.524;2024-02-14T02:32:48;100876.50;;;4.62;100.00
69566;BME280;56777;55.930;37.524;2024-02-14T02:35:15;100875.41;;;4.57;100.00
69566;BME280;56777;55.930;37.524;2024-02-14T02:37:41;100884.03;;;4.56;100.00
69566;BME280;56777;55.930;37.524;2024-02-14T02:40:08;100902.19;;;4.56;100.00
69566;BME280;56777;55.930;37.524;2024-02-14T02:42:35;100886.22;;;4.46;100.00
69566;BME280;56777;55.930;37.524;2024-02-14T02:45:01;100893.19;;;4.47;100.00
69566;BME280;56777;55.930;37.524;2024-02-14T02:47:31;100886.00;;;4.42;100.00
69566;BME280;56777;55.930;37.524;2024-02-14T02:49:56;100894.53;;;4.39;100.00
69566;BME280;56777;55.930;37.524;2024-02-14T02:52:23;100908.47;;;4.41;100.00
69566;BME280;56777;55.930;37.524;2024-02-14T02:54:48;100884.53;;;4.29;100.00
69566;BME280;56777;55.930;37.524;2024-02-14T02:57:14;100901.03;;;4.29;100.00
69566;BME280;56777;55.930;37.524;2024-02-14T02:59:40;100768.19;;;3.60;100.00
69566;BME280;56777;55.930;37.524;2024-02-14T03:02:10;100878.66;;;4.14;100.00
69566;BME280;56777;55.930;37.524;2024-02-14T03:04:38;100892.88;;;4.22;100.00
69566;BME280;56777;55.930;37.524;2024-02-14T03:07:03;100891.16;;;4.22;100.00
69566;BME280;56777;55.930;37.524;2024-02-14T03:09:32;100874.34;;;4.14;100.00
69566;BME280;56777;55.930;37.524;2024-02-14T03:11:58;100892.31;;;4.29;100.00
69566;BME280;56777;55.930;37.524;2024-02-14T03:14:23;100892.72;;;4.19;100.00
69566;BME280;56777;55.930;37.524;2024-02-14T03:16:49;100892.00;;;4.21;100.00
69566;BME280;56777;55.930;37.524;2024-02-14T03:19:15;100899.16;;;4.27;100.00
69566;BME280;56777;55.930;37.524;2024-02-14T03:21:40;100890.06;;;4.17;100.00
69566;BME280;56777;55.930;37.524;2024-02-14T03:24:08;100887.56;;;4.19;100.00
69566;BME280;56777;55.930;37.524;2024-02-14T03:26:36;100884.00;;;4.17;100.00
69566;BME280;56777;55.930;37.524;2024-02-14T03:29:03;100878.06;;;4.19;100.00
69566;BME280;56777;55.930;37.524;2024-02-14T03:31:32;100889.06;;;4.33;100.00
69566;BME280;56777;55.930;37.524;2024-02-14T03:33:58;100890.19;;;4.20;100.00
69566;BME280;56777;55.930;37.524;2024-02-14T03:36:23;100885.16;;;4.23;100.00
69566;BME280;56777;55.930;37.524;2024-02-14T03:38:52;100887.09;;;4.27;100.00
69566;BME280;56777;55.930;37.524;2024-02-14T03:41:17;100808.88;;;3.81;100.00
69566;BME280;56777;55.930;37.524;2024-02-14T03:43:43;100892.53;;;4.34;100.00
69566;BME280;56777;55.930;37.524;2024-02-14T03:46:09;100881.28;;;4.33;100.00
69566;BME280;56777;55.930;37.524;2024-02-14T03:48:34;100886.94;;;4.24;100.00
69566;BME280;56777;55.930;37.524;2024-02-14T03:51:02;100875.56;;;4.21;100.00
69566;BME280;56777;55.930;37.524;2024-02-14T03:53:28;100888.66;;;4.24;100.00
69566;BME280;56777;55.930;37.524;2024-02-14T03:55:54;100897.72;;;4.34;100.00
69566;BME280;56777;55.930;37.524;2024-02-14T03:58:19;100885.50;;;4.31;100.00
69566;BME280;56777;55.930;37.524;2024-02-14T04:00:51;100890.56;;;4.28;100.00
69566;BME280;56777;55.930;37.524;2024-02-14T04:03:17;100894.91;;;4.29;100.00
69566;BME280;56777;55.930;37.524;2024-02-14T04:05:43;100900.56;;;4.38;100.00
69566;BME280;56777;55.930;37.524;2024-02-14T04:08:10;100900.69;;;4.41;100.00
69566;BME280;56777;55.930;37.524;2024-02-14T04:10:36;100890.44;;;4.44;100.00
69566;BME280;56777;55.930;37.524;2024-02-14T04:13:05;100913.84;;;4.46;100.00
69566;BME280;56777;55.930;37.524;2024-02-14T04:15:31;100904.72;;;4.54;100.00
69566;BME280;56777;55.930;37.524;2024-02-14T04:17:57;100903.59;;;4.49;100.00
69566;BME280;56777;55.930;37.524;2024-02-14T04:20:25;100905.94;;;4.43;100.00
69566;BME280;56777;55.930;37.524;2024-02-14T04:22:51;100910.09;;;4.39;100.00
69566;BME280;56777;55.930;37.524;2024-02-14T04:25:17;100918.28;;;4.48;100.00
69566;BME280;56777;55.930;37.524;2024-02-14T04:27:44;100915.28;;;4.39;100.00
69566;BME280;56777;55.930;37.524;2024-02-14T04:30:10;100915.28;;;4.39;100.00
69566;BME280;56777;55.930;37.524;2024-02-14T04:32:35;100923.06;;;4.39;100.00
69566;BME280;56777;55.930;37.524;2024-02-14T04:35:01;100915.66;;;4.29;100.00
69566;BME280;56777;55.930;37.524;2024-02-14T04:37:26;100920.72;;;4.26;100.00
69566;BME280;56777;55.930;37.524;2024-02-14T04:39:52;100923.75;;;4.35;100.00
69566;BME280;56777;55.930;37.524;2024-02-14T04:42:18;100926.16;;;4.13;100.00
69566;BME280;56777;55.930;37.524;2024-02-14T04:44:43;100923.94;;;4.02;100.00
69566;BME280;56777;55.930;37.524;2024-02-14T04:47:09;100923.50;;;3.93;100.00
69566;BME280;56777;55.930;37.524;2024-02-14T04:49:37;100941.06;;;3.99;100.00
69566;BME280;56777;55.930;37.524;2024-02-14T04:52:04;100937.59;;;3.98;100.00
69566;BME280;56777;55.930;37.524;2024-02-14T04:54:29;100935.75;;;3.96;100.00
69566;BME280;56777;55.930;37.524;2024-02-14T04:56:55;100940.19;;;3.98;100.00
69566;BME280;56777;55.930;37.524;2024-02-14T04:59:21;100965.28;;;3.99;100.00
69566;BME280;56777;55.930;37.524;2024-02-14T05:01:46;100943.44;;;3.94;100.00
69566;BME280;56777;55.930;37.524;2024-02-14T05:04:12;100941.94;;;3.99;100.00
69566;BME280;56777;55.930;37.524;2024-02-14T05:06:39;100931.00;;;3.87;100.00
69566;BME280;56777;55.930;37.524;2024-02-14T05:09:05;100952.03;;;3.93;100.00
69566;BME280;56777;55.930;37.524;2024-02-14T05:11:30;100976.78;;;4.04;100.00
69566;BME280;56777;55.930;37.524;2024-02-14T05:13:56;100971.44;;;4.01;100.00
69566;BME280;56777;55.930;37.524;2024-02-14T05:16:21;100949.44;;;3.93;100.00
69566;BME280;56777;55.930;37.524;2024-02-14T05:18:48;101001.00;;;4.05;100.00
69566;BME280;56777;55.930;37.524;2024-02-14T05:21:14;100991.56;;;3.89;100.00
69566;BME280;56777;55.930;37.524;2024-02-14T05:23:39;100995.28;;;3.94;100.00
69566;BME280;56777;55.930;37.524;2024-02-14T05:26:06;100987.88;;;3.84;100.00
69566;BME280;56777;55.930;37.524;2024-02-14T05:28:32;101003.88;;;3.93;100.00
69566;BME280;56777;55.930;37.524;2024-02-14T05:30:58;101014.41;;;3.96;100.00
69566;BME280;56777;55.930;37.524;2024-02-14T05:33:24;101002.41;;;3.98;100.00
69566;BME280;56777;55.930;37.524;2024-02-14T05:35:49;100982.84;;;3.87;100.00
69566;BME280;56777;55.930;37.524;2024-02-14T05:38:15;100954.53;;;3.74;100.00
69566;BME280;56777;55.930;37.524;2024-02-14T05:40:41;101018.03;;;4.00;100.00
69566;BME280;56777;55.930;37.524;2024-02-14T05:43:09;101003.00;;;3.93;100.00
69566;BME280;56777;55.930;37.524;2024-02-14T05:45:35;100985.19;;;3.82;100.00
69566;BME280;56777;55.930;37.524;2024-02-14T05:48:01;101010.38;;;3.85;100.00
69566;BME280;56777;55.930;37.524;2024-02-14T05:50:27;101010.31;;;3.83;100.00
69566;BME280;56777;55.930;37.524;2024-02-14T05:52:53;101003.88;;;3.75;100.00
69566;BME280;56777;55.930;37.524;2024-02-14T05:55:19;101010.66;;;3.73;100.00
69566;BME280;56777;55.930;37.524;2024-02-14T05:57:44;101019.63;;;3.80;100.00
69566;BME280;56777;55.930;37.524;2024-02-14T06:00:10;101017.47;;;3.71;100.00
69566;BME280;56777;55.930;37.524;2024-02-14T06:02:38;101008.81;;;3.71;100.00
69566;BME280;56777;55.930;37.524;2024-02-14T06:05:08;101005.25;;;3.69;100.00
69566;BME280;56777;55.930;37.524;2024-02-14T06:07:36;100980.28;;;3.53;100.00
69566;BME280;56777;55.930;37.524;2024-02-14T06:10:01;100976.06;;;3.55;100.00
69566;BME280;56777;55.930;37.524;2024-02-14T06:12:27;101002.50;;;3.66;100.00
69566;BME280;56777;55.930;37.524;2024-02-14T06:14:52;101007.97;;;3.72;100.00
69566;BME280;56777;55.930;37.524;2024-02-14T06:17:18;101014.81;;;3.70;100.00
69566;BME280;56777;55.930;37.524;2024-02-14T06:19:44;100986.94;;;3.66;100.00
69566;BME280;56777;55.930;37.524;2024-02-14T06:22:09;101002.38;;;3.80;100.00
69566;BME280;56777;55.930;37.524;2024-02-14T06:24:37;100997.63;;;3.72;100.00
69566;BME280;56777;55.930;37.524;2024-02-14T06:27:03;101024.91;;;3.81;100.00
69566;BME280;56777;55.930;37.524;2024-02-14T06:29:28;101006.97;;;3.86;100.00
69566;BME280;56777;55.930;37.524;2024-02-14T06:31:54;100996.94;;;3.92;100.00
69566;BME280;56777;55.930;37.524;2024-02-14T06:34:19;100989.78;;;3.88;100.00
69566;BME280;56777;55.930;37.524;2024-02-14T06:36:48;101033.81;;;4.04;100.00
69566;BME280;56777;55.930;37.524;2024-02-14T06:39:13;101001.88;;;4.05;100.00
69566;BME280;56777;55.930;37.524;2024-02-14T06:41:39;101025.00;;;4.19;100.00
69566;BME280;56777;55.930;37.524;2024-02-14T06:44:05;101006.84;;;4.19;100.00
69566;BME280;56777;55.930;37.524;2024-02-14T06:46:31;100975.22;;;4.08;100.00
69566;BME280;56777;55.930;37.524;2024-02-14T06:48:57;100989.53;;;4.18;100.00
69566;BME280;56777;55.930;37.524;2024-02-14T06:51:23;100969.66;;;4.18;100.00
69566;BME280;56777;55.930;37.524;2024-02-14T06:53:50;100996.91;;;4.28;100.00
69566;BME280;56777;55.930;37.524;2024-02-14T06:56:16;101006.50;;;4.48;100.00
69566;BME280;56777;55.930;37.524;2024-02-14T06:58:42;101014.81;;;4.59;100.00
69566;BME280;56777;55.930;37.524;2024-02-14T07:01:07;101015.50;;;4.55;100.00
69566;BME280;56777;55.930;37.524;2024-02-14T07:03:33;101024.72;;;4.68;100.00
69566;BME280;56777;55.930;37.524;2024-02-14T07:05:59;101022.72;;;4.62;100.00
69566;BME280;56777;55.930;37.524;2024-02-14T07:08:25;101021.31;;;4.69;100.00
69566;BME280;56777;55.930;37.524;2024-02-14T07:10:54;101025.88;;;4.92;100.00
69566;BME280;56777;55.930;37.524;2024-02-14T07:13:20;101025.97;;;4.76;100.00
69566;BME280;56777;55.930;37.524;2024-02-14T07:15:46;101029.13;;;4.88;100.00
69566;BME280;56777;55.930;37.524;2024-02-14T07:18:11;101013.06;;;4.97;100.00
69566;BME280;56777;55.930;37.524;2024-02-14T07:20:37;101006.78;;;4.92;100.00
69566;BME280;56777;55.930;37.524;2024-02-14T07:23:02;100996.63;;;4.96;100.00
69566;BME280;56777;55.930;37.524;2024-02-14T07:25:29;100999.91;;;4.92;100.00
69566;BME280;56777;55.930;37.524;2024-02-14T07:27:54;101000.00;;;5.15;100.00
69566;BME280;56777;55.930;37.524;2024-02-14T07:30:20;101010.75;;;5.23;100.00
69566;BME280;56777;55.930;37.524;2024-02-14T07:32:46;101013.56;;;5.27;100.00
69566;BME280;56777;55.930;37.524;2024-02-14T07:35:11;100986.00;;;5.11;100.00
69566;BME280;56777;55.930;37.524;2024-02-14T07:37:39;101008.13;;;5.42;100.00
69566;BME280;56777;55.930;37.524;2024-02-14T07:40:05;100973.78;;;5.49;100.00
69566;BME280;56777;55.930;37.524;2024-02-14T07:42:31;101006.72;;;5.91;100.00
69566;BME280;56777;55.930;37.524;2024-02-14T07:44:57;100987.78;;;5.93;100.00
69566;BME280;56777;55.930;37.524;2024-02-14T07:47:22;101004.97;;;6.11;100.00
69566;BME280;56777;55.930;37.524;2024-02-14T07:49:48;100972.00;;;6.09;100.00
69566;BME280;56777;55.930;37.524;2024-02-14T07:52:13;101002.28;;;6.30;100.00
69566;BME280;56777;55.930;37.524;2024-02-14T07:54:39;101007.19;;;6.45;100.00
69566;BME280;56777;55.930;37.524;2024-02-14T07:57:05;101007.22;;;6.91;100.00
69566;BME280;56777;55.930;37.524;2024-02-14T07:59:31;101012.56;;;7.42;100.00
69566;BME280;56777;55.930;37.524;2024-02-14T08:01:56;100983.09;;;7.45;97.79
69566;BME280;56777;55.930;37.524;2024-02-14T08:04:22;101014.78;;;7.08;98.37
69566;BME280;56777;55.930;37.524;2024-02-14T08:06:48;100972.66;;;6.95;97.27
69566;BME280;56777;55.930;37.524;2024-02-14T08:09:16;101011.00;;;7.23;97.37
69566;BME280;56777;55.930;37.524;2024-02-14T08:11:42;101011.16;;;7.28;96.29
69566;BME280;56777;55.930;37.524;2024-02-14T08:14:07;100997.78;;;6.71;99.19
69566;BME280;56777;55.930;37.524;2024-02-14T08:16:34;100974.97;;;6.41;99.72
69566;BME280;56777;55.930;37.524;2024-02-14T08:19:01;101019.88;;;6.58;100.00
69566;BME280;56777;55.930;37.524;2024-02-14T08:21:27;101011.31;;;6.40;100.00
69566;BME280;56777;55.930;37.524;2024-02-14T08:23:53;101010.44;;;7.08;100.00
69566;BME280;56777;55.930;37.524;2024-02-14T08:26:20;101011.66;;;7.42;98.10
69566;BME280;56777;55.930;37.524;2024-02-14T08:28:50;100983.88;;;7.68;96.10
69566;BME280;56777;55.930;37.524;2024-02-14T08:31:16;101015.31;;;7.98;94.03
69566;BME280;56777;55.930;37.524;2024-02-14T08:33:42;100929.09;;;7.95;92.99
69566;BME280;56777;55.930;37.524;2024-02-14T08:36:08;101029.75;;;8.14;92.02
69566;BME280;56777;55.930;37.524;2024-02-14T08:38:34;100998.78;;;8.25;92.78
69566;BME280;56777;55.930;37.524;2024-02-14T08:41:01;101026.66;;;8.26;92.19
69566;BME280;56777;55.930;37.524;2024-02-14T08:43:27;101023.00;;;8.21;92.31
69566;BME280;56777;55.930;37.524;2024-02-14T08:45:56;101019.91;;;8.05;92.63
69566;BME280;56777;55.930;37.524;2024-02-14T08:48:22;101013.28;;;8.42;91.81
69566;BME280;56777;55.930;37.524;2024-02-14T08:50:48;101015.00;;;7.89;92.27
69566;BME280;56777;55.930;37.524;2024-02-14T08:53:13;101019.31;;;7.61;93.58
69566;BME280;56777;55.930;37.524;2024-02-14T08:55:40;101006.50;;;7.95;94.07
69566;BME280;56777;55.930;37.524;2024-02-14T08:58:05;100996.41;;;9.52;88.28
69566;BME280;56777;55.930;37.524;2024-02-14T09:00:31;101010.00;;;8.49;88.41
69566;BME280;56777;55.930;37.524;2024-02-14T09:03:00;101008.63;;;7.81;91.65
69566;BME280;56777;55.930;37.524;2024-02-14T09:05:26;101016.84;;;7.66;94.12
69566;BME280;56777;55.930;37.524;2024-02-14T09:07:53;101012.59;;;7.70;94.33
69566;BME280;56777;55.930;37.524;2024-02-14T09:10:19;101022.16;;;7.69;94.07
69566;BME280;56777;55.930;37.524;2024-02-14T09:12:45;101023.69;;;7.88;94.03
69566;BME280;56777;55.930;37.524;2024-02-14T09:15:10;101000.81;;;7.81;94.44
69566;BME280;56777;55.930;37.524;2024-02-14T09:17:37;101012.84;;;7.76;94.50
69566;BME280;56777;55.930;37.524;2024-02-14T09:20:05;101015.69;;;7.83;94.73
69566;BME280;56777;55.930;37.524;2024-02-14T09:22:32;101015.59;;;7.80;95.16
69566;BME280;56777;55.930;37.524;2024-02-14T09:24:59;101019.88;;;7.53;95.63
69566;BME280;56777;55.930;37.524;2024-02-14T09:27:24;100987.16;;;7.37;95.42
69566;BME280;56777;55.930;37.524;2024-02-14T09:29:50;101034.53;;;7.25;96.25
69566;BME280;56777;55.930;37.524;2024-02-14T09:32:15;101028.50;;;7.52;96.97
69566;BME280;56777;55.930;37.524;2024-02-14T09:34:41;101017.69;;;7.15;97.45
69566;BME280;56777;55.930;37.524;2024-02-14T09:37:07;101022.81;;;6.90;98.49
69566;BME280;56777;55.930;37.524;2024-02-14T09:39:32;101014.72;;;7.06;99.30
69566;BME280;56777;55.930;37.524;2024-02-14T09:42:08;100978.22;;;6.36;100.00
69566;BME280;56777;55.930;37.524;2024-02-14T09:44:34;101014.34;;;6.28;100.00
69566;BME280;56777;55.930;37.524;2024-02-14T09:47:00;101030.75;;;6.48;100.00
69566;BME280;56777;55.930;37.524;2024-02-14T09:49:28;101033.03;;;6.40;100.00
69566;BME280;56777;55.930;37.524;2024-02-14T09:51:55;101019.84;;;6.36;100.00
69566;BME280;56777;55.930;37.524;2024-02-14T09:54:22;101028.06;;;6.03;100.00
69566;BME280;56777;55.930;37.524;2024-02-14T09:56:51;101035.22;;;5.87;100.00
69566;BME280;56777;55.930;37.524;2024-02-14T09:59:22;101038.09;;;5.74;100.00
69566;BME280;56777;55.930;37.524;2024-02-14T10:01:47;101013.69;;;5.92;100.00
69566;BME280;56777;55.930;37.524;2024-02-14T10:04:18;101047.00;;;5.79;100.00
69566;BME280;56777;55.930;37.524;2024-02-14T10:06:46;101040.66;;;5.73;100.00
69566;BME280;56777;55.930;37.524;2024-02-14T10:09:19;101020.97;;;5.79;100.00
69566;BME280;56777;55.930;37.524;2024-02-14T10:11:45;101037.09;;;5.71;100.00
69566;BME280;56777;55.930;37.524;2024-02-14T10:14:12;101028.16;;;5.64;100.00
69566;BME280;56777;55.930;37.524;2024-02-14T10:16:38;101036.34;;;5.73;100.00
69566;BME280;56777;55.930;37.524;2024-02-14T10:19:03;101031.63;;;5.64;100.00
69566;BME280;56777;55.930;37.524;2024-02-14T10:21:29;101034.34;;;5.47;100.00
69566;BME280;56777;55.930;37.524;2024-02-14T10:24:01;101036.31;;;5.52;100.00
69566;BME280;56777;55.930;37.524;2024-02-14T10:26:30;101026.69;;;5.30;100.00
69566;BME280;56777;55.930;37.524;2024-02-14T10:28:56;101037.94;;;5.50;100.00
69566;BME280;56777;55.930;37.524;2024-02-14T10:31:25;101006.88;;;5.32;100.00
69566;BME280;56777;55.930;37.524;2024-02-14T10:33:52;101041.66;;;5.55;100.00
69566;BME280;56777;55.930;37.524;2024-02-14T10:36:20;100981.16;;;5.19;100.00
69566;BME280;56777;55.930;37.524;2024-02-14T10:38:46;101034.38;;;5.48;100.00
69566;BME280;56777;55.930;37.524;2024-02-14T10:41:16;100998.09;;;5.30;100.00
69566;BME280;56777;55.930;37.524;2024-02-14T10:43:41;101026.94;;;5.36;100.00
69566;BME280;56777;55.930;37.524;2024-02-14T10:46:15;101051.25;;;5.58;100.00
69566;BME280;56777;55.930;37.524;2024-02-14T10:48:44;101049.97;;;5.68;100.00
69566;BME280;56777;55.930;37.524;2024-02-14T10:51:12;101053.34;;;5.26;100.00
69566;BME280;56777;55.930;37.524;2024-02-14T10:53:39;101046.16;;;5.40;100.00
69566;BME280;56777;55.930;37.524;2024-02-14T10:56:13;101045.53;;;5.26;100.00
69566;BME280;56777;55.930;37.524;2024-02-14T10:58:45;101044.78;;;5.48;100.00
69566;BME280;56777;55.930;37.524;2024-02-14T11:01:11;100996.31;;;5.29;100.00
69566;BME280;56777;55.930;37.524;2024-02-14T11:03:37;101036.34;;;5.33;100.00
69566;BME280;56777;55.930;37.524;2024-02-14T11:06:03;101054.38;;;5.30;100.00
69566;BME280;56777;55.930;37.524;2024-02-14T11:08:29;101027.50;;;5.10;100.00
69566;BME280;56777;55.930;37.524;2024-02-14T11:10:59;101051.69;;;5.28;100.00
69566;BME280;56777;55.930;37.524;2024-02-14T11:13:31;101050.47;;;5.39;100.00
69566;BME280;56777;55.930;37.524;2024-02-14T11:16:01;101017.94;;;5.09;100.00
69566;BME280;56777;55.930;37.524;2024-02-14T11:18:29;101044.47;;;5.21;100.00
69566;BME280;56777;55.930;37.524;2024-02-14T11:20:56;101040.06;;;5.39;100.00
69566;BME280;56777;55.930;37.524;2024-02-14T11:23:24;101046.16;;;5.40;100.00
69566;BME280;56777;55.930;37.524;2024-02-14T11:26:05;101049.09;;;5.28;100.00
69566;BME280;56777;55.930;37.524;2024-02-14T11:28:36;101049.09;;;5.09;100.00
69566;BME280;56777;55.930;37.524;2024-02-14T11:31:02;100987.81;;;4.93;100.00
69566;BME280;56777;55.930;37.524;2024-02-14T11:33:33;101003.38;;;4.93;100.00
69566;BME280;56777;55.930;37.524;2024-02-14T11:36:07;101040.44;;;5.28;100.00
69566;BME280;56777;55.930;37.524;2024-02-14T11:38:34;101061.25;;;5.29;100.00
69566;BME280;56777;55.930;37.524;2024-02-14T11:41:00;101029.41;;;4.94;100.00
69566;BME280;56777;55.930;37.524;2024-02-14T11:43:25;101051.03;;;5.13;100.00
69566;BME280;56777;55.930;37.524;2024-02-14T11:45:52;101059.16;;;5.20;100.00
69566;BME280;56777;55.930;37.524;2024-02-14T11:48:18;101051.22;;;5.17;100.00
69566;BME280;56777;55.930;37.524;2024-02-14T11:50:49;101011.72;;;5.05;100.00
69566;BME280;56777;55.930;37.524;2024-02-14T11:53:16;101054.16;;;5.06;100.00
69566;BME280;56777;55.930;37.524;2024-02-14T11:55:43;101061.97;;;5.25;100.00
69566;BME280;56777;55.930;37.524;2024-02-14T11:58:12;101050.88;;;5.10;100.00
69566;BME280;56777;55.930;37.524;2024-02-14T12:00:42;101051.69;;;5.28;100.00
69566;BME280;56777;55.930;37.524;2024-02-14T12:03:20;101062.72;;;5.23;100.00
69566;BME280;56777;55.930;37.524;2024-02-14T12:05:47;101077.22;;;5.37;100.00
69566;BME280;56777;55.930;37.524;2024-02-14T12:08:14;101083.97;;;5.33;100.00
69566;BME280;56777;55.930;37.524;2024-02-14T12:10:42;101077.63;;;5.27;100.00
69566;BME280;56777;55.930;37.524;2024-02-14T12:13:09;101084.50;;;5.26;100.00
69566;BME280;56777;55.930;37.524;2024-02-14T12:18:04;101074.59;;;5.17;100.00
69566;BME280;56777;55.930;37.524;2024-02-14T12:20:30;101086.50;;;5.12;100.00
69566;BME280;56777;55.930;37.524;2024-02-14T12:22:56;101092.72;;;5.16;100.00
69566;BME280;56777;55.930;37.524;2024-02-14T12:25:22;101009.28;;;4.71;100.00
69566;BME280;56777;55.930;37.524;2024-02-14T12:27:51;101092.31;;;5.07;100.00
69566;BME280;56777;55.930;37.524;2024-02-14T12:30:17;101065.16;;;5.00;100.00
69566;BME280;56777;55.930;37.524;2024-02-14T12:32:43;101091.75;;;5.14;100.00
69566;BME280;56777;55.930;37.524;2024-02-14T12:35:09;101076.72;;;5.07;100.00
69566;BME280;56777;55.930;37.524;2024-02-14T12:37:35;101103.13;;;5.35;100.00
69566;BME280;56777;55.930;37.524;2024-02-14T12:40:01;101102.78;;;5.28;100.00